sensor_id;sensor_type;location;lat;lon;timestamp;P1;durP1;ratioP1;P2;durP2;ratioP2
31770;SDS011;18343;50.152;8.182;2024-03-23T00:55:08;34.92;;;19.95;;
31770;SDS011;18343;50.152;8.182;2024-03-23T00:57:52;30.25;;;16.80;;
31770;SDS011;18343;50.152;8.182;2024-03-23T01:00:37;27.15;;;17.27;;
31770;SDS011;18343;50.152;8.182;2024-03-23T01:03:22;28.73;;;16.95;;
31770;SDS011;18343;50.152;8.182;2024-03-23T01:06:06;32.13;;;16.85;;
31770;SDS011;18343;50.152;8.182;2024-03-23T01:08:51;37.00;;;18.00;;
31770;SDS011;18343;50.152;8.182;2024-03-23T01:11:37;33.90;;;20.13;;
31770;SDS011;18343;50.152;8.182;2024-03-23T01:14:21;31.70;;;19.10;;
31770;SDS011;18343;50.152;8.182;2024-03-23T01:17:06;39.05;;;20.17;;
31770;SDS011;18343;50.152;8.182;2024-03-23T01:19:50;36.30;;;20.92;;
31770;SDS011;18343;50.152;8.182;2024-03-23T01:22:35;37.30;;;19.92;;
31770;SDS011;18343;50.152;8.182;2024-03-23T01:25:19;32.63;;;17.98;;
31770;SDS011;18343;50.152;8.182;2024-03-23T01:28:06;27.30;;;16.33;;
31770;SDS011;18343;50.152;8.182;2024-03-23T01:30:50;28.80;;;15.60;;
31770;SDS011;18343;50.152;8.182;2024-03-23T01:33:35;29.98;;;16.70;;
31770;SDS011;18343;50.152;8.182;2024-03-23T01:36:19;28.50;;;16.88;;
31770;SDS011;18343;50.152;8.182;2024-03-23T01:39:04;28.45;;;16.40;;
31770;SDS011;18343;50.152;8.182;2024-03-23T01:41:48;31.90;;;17.92;;
31770;SDS011;18343;50.152;8.182;2024-03-23T01:44:34;33.40;;;18.20;;
31770;SDS011;18343;50.152;8.182;2024-03-23T01:47:18;33.60;;;18.60;;
31770;SDS011;18343;50.152;8.182;2024-03-23T01:50:03;33.25;;;18.30;;
31770;SDS011;18343;50.152;8.182;2024-03-23T01:52:50;34.95;;;19.58;;
31770;SDS011;18343;50.152;8.182;2024-03-23T01:55:35;39.03;;;18.73;;
31770;SDS011;18343;50.152;8.182;2024-03-23T01:58:19;35.03;;;18.65;;
31770;SDS011;18343;50.152;8.182;2024-03-23T02:01:05;40.58;;;21.48;;
31770;SDS011;18343;50.152;8.182;2024-03-23T02:03:49;38.08;;;21.27;;
31770;SDS011;18343;50.152;8.182;2024-03-23T02:06:34;38.60;;;20.60;;
31770;SDS011;18343;50.152;8.182;2024-03-23T02:09:18;37.67;;;19.40;;
31770;SDS011;18343;50.152;8.182;2024-03-23T02:12:03;43.45;;;21.42;;
31770;SDS011;18343;50.152;8.182;2024-03-23T02:14:49;39.85;;;21.55;;
31770;SDS011;18343;50.152;8.182;2024-03-23T02:17:35;41.58;;;21.95;;
31770;SDS011;18343;50.152;8.182;2024-03-23T02:20:20;44.20;;;21.23;;
31770;SDS011;18343;50.152;8.182;2024-03-23T02:23:05;37.05;;;21.88;;
31770;SDS011;18343;50.152;8.182;2024-03-23T02:25:57;39.42;;;21.00;;
31770;SDS011;18343;50.152;8.182;2024-03-23T02:28:42;38.58;;;22.13;;
31770;SDS011;18343;50.152;8.182;2024-03-23T02:31:26;38.58;;;21.38;;
31770;SDS011;18343;50.152;8.182;2024-03-23T02:34:11;39.42;;;22.30;;
31770;SDS011;18343;50.152;8.182;2024-03-23T02:36:56;40.67;;;22.33;;
31770;SDS011;18343;50.152;8.182;2024-03-23T02:39:42;42.58;;;22.33;;
31770;SDS011;18343;50.152;8.182;2024-03-23T02:42:27;44.15;;;23.02;;
31770;SDS011;18343;50.152;8.182;2024-03-23T02:45:11;42.97;;;23.20;;
31770;SDS011;18343;50.152;8.182;2024-03-23T02:47:56;41.13;;;22.58;;
31770;SDS011;18343;50.152;8.182;2024-03-23T02:50:40;46.25;;;22.42;;
31770;SDS011;18343;50.152;8.182;2024-03-23T02:53:25;36.10;;;19.70;;
31770;SDS011;18343;50.152;8.182;2024-03-23T02:56:11;32.60;;;19.13;;
31770;SDS011;18343;50.152;8.182;2024-03-23T02:58:56;38.78;;;21.10;;
31770;SDS011;18343;50.152;8.182;2024-03-23T03:01:40;37.15;;;20.42;;
31770;SDS011;18343;50.152;8.182;2024-03-23T03:04:25;40.38;;;22.20;;
31770;SDS011;18343;50.152;8.182;2024-03-23T03:07:09;40.67;;;22.17;;
31770;SDS011;18343;50.152;8.182;2024-03-23T03:09:54;39.25;;;21.45;;
31770;SDS011;18343;50.152;8.182;2024-03-23T03:12:40;46.05;;;23.67;;
31770;SDS011;18343;50.152;8.182;2024-03-23T03:15:24;46.10;;;23.15;;
31770;SDS011;18343;50.152;8.182;2024-03-23T03:18:09;44.95;;;24.13;;
31770;SDS011;18343;50.152;8.182;2024-03-23T03:20:54;50.20;;;23.92;;
31770;SDS011;18343;50.152;8.182;2024-03-23T03:23:39;42.85;;;23.52;;
31770;SDS011;18343;50.152;8.182;2024-03-23T03:26:24;48.35;;;25.50;;
31770;SDS011;18343;50.152;8.182;2024-03-23T03:29:10;48.95;;;25.67;;
31770;SDS011;18343;50.152;8.182;2024-03-23T03:31:55;34.92;;;18.73;;
31770;SDS011;18343;50.152;8.182;2024-03-23T03:34:39;23.95;;;11.20;;
31770;SDS011;18343;50.152;8.182;2024-03-23T03:37:24;15.65;;;9.15;;
31770;SDS011;18343;50.152;8.182;2024-03-23T03:40:09;10.50;;;6.25;;
31770;SDS011;18343;50.152;8.182;2024-03-23T03:42:55;7.05;;;4.68;;
31770;SDS011;18343;50.152;8.182;2024-03-23T03:45:41;5.45;;;2.83;;
31770;SDS011;18343;50.152;8.182;2024-03-23T03:48:26;9.63;;;4.75;;
31770;SDS011;18343;50.152;8.182;2024-03-23T03:51:10;5.75;;;3.25;;
31770;SDS011;18343;50.152;8.182;2024-03-23T03:53:55;4.03;;;3.30;;
31770;SDS011;18343;50.152;8.182;2024-03-23T03:56:40;4.70;;;3.17;;
31770;SDS011;18343;50.152;8.182;2024-03-23T03:59:25;4.63;;;2.55;;
31770;SDS011;18343;50.152;8.182;2024-03-23T04:02:11;2.55;;;1.98;;
31770;SDS011;18343;50.152;8.182;2024-03-23T04:04:56;3.95;;;2.30;;
31770;SDS011;18343;50.152;8.182;2024-03-23T04:07:40;5.20;;;3.30;;
31770;SDS011;18343;50.152;8.182;2024-03-23T04:10:26;2.72;;;2.25;;
31770;SDS011;18343;50.152;8.182;2024-03-23T04:13:10;3.50;;;3.20;;
31770;SDS011;18343;50.152;8.182;2024-03-23T04:15:54;5.00;;;3.30;;
31770;SDS011;18343;50.152;8.182;2024-03-23T04:18:41;3.88;;;3.45;;
31770;SDS011;18343;50.152;8.182;2024-03-23T04:21:25;4.00;;;3.60;;
31770;SDS011;18343;50.152;8.182;2024-03-23T04:24:10;5.95;;;3.50;;
31770;SDS011;18343;50.152;8.182;2024-03-23T04:26:54;3.97;;;3.17;;
31770;SDS011;18343;50.152;8.182;2024-03-23T04:29:39;4.70;;;4.22;;
31770;SDS011;18343;50.152;8.182;2024-03-23T04:32:24;5.03;;;3.97;;
31770;SDS011;18343;50.152;8.182;2024-03-23T04:35:10;4.15;;;3.25;;
31770;SDS011;18343;50.152;8.182;2024-03-23T04:37:55;4.13;;;3.25;;
31770;SDS011;18343;50.152;8.182;2024-03-23T04:40:39;5.10;;;3.15;;
31770;SDS011;18343;50.152;8.182;2024-03-23T04:43:23;5.70;;;3.28;;
31770;SDS011;18343;50.152;8.182;2024-03-23T04:46:08;4.70;;;3.63;;
31770;SDS011;18343;50.152;8.182;2024-03-23T04:48:53;4.25;;;3.72;;
31770;SDS011;18343;50.152;8.182;2024-03-23T04:51:38;6.45;;;3.75;;
31770;SDS011;18343;50.152;8.182;2024-03-23T04:54:23;7.30;;;3.70;;
31770;SDS011;18343;50.152;8.182;2024-03-23T04:57:07;4.40;;;4.00;;
31770;SDS011;18343;50.152;8.182;2024-03-23T04:59:52;4.78;;;3.90;;
31770;SDS011;18343;50.152;8.182;2024-03-23T05:02:37;4.93;;;4.22;;
31770;SDS011;18343;50.152;8.182;2024-03-23T05:05:21;6.88;;;4.75;;
31770;SDS011;18343;50.152;8.182;2024-03-23T05:08:07;7.10;;;4.47;;
31770;SDS011;18343;50.152;8.182;2024-03-23T05:10:52;5.75;;;4.32;;
31770;SDS011;18343;50.152;8.182;2024-03-23T05:13:37;3.75;;;3.25;;
31770;SDS011;18343;50.152;8.182;2024-03-23T05:16:21;5.72;;;3.63;;
31770;SDS011;18343;50.152;8.182;2024-03-23T05:19:06;4.32;;;3.38;;
31770;SDS011;18343;50.152;8.182;2024-03-23T05:21:51;3.33;;;2.33;;
31770;SDS011;18343;50.152;8.182;2024-03-23T05:24:37;3.65;;;2.88;;
31770;SDS011;18343;50.152;8.182;2024-03-23T05:27:22;3.08;;;2.75;;
31770;SDS011;18343;50.152;8.182;2024-03-23T05:30:06;2.63;;;2.42;;
31770;SDS011;18343;50.152;8.182;2024-03-23T05:32:52;2.88;;;2.58;;
31770;SDS011;18343;50.152;8.182;2024-03-23T05:35:36;3.20;;;2.50;;
31770;SDS011;18343;50.152;8.182;2024-03-23T05:38:20;2.65;;;2.00;;
31770;SDS011;18343;50.152;8.182;2024-03-23T05:41:06;1.90;;;1.67;;
31770;SDS011;18343;50.152;8.182;2024-03-23T05:43:51;2.15;;;1.92;;
31770;SDS011;18343;50.152;8.182;2024-03-23T05:46:35;1.88;;;1.70;;
31770;SDS011;18343;50.152;8.182;2024-03-23T05:49:20;2.13;;;1.85;;
31770;SDS011;18343;50.152;8.182;2024-03-23T05:52:04;2.97;;;2.30;;
31770;SDS011;18343;50.152;8.182;2024-03-23T05:54:49;3.50;;;2.50;;
31770;SDS011;18343;50.152;8.182;2024-03-23T05:57:35;4.43;;;3.15;;
31770;SDS011;18343;50.152;8.182;2024-03-23T06:00:19;2.65;;;2.20;;
31770;SDS011;18343;50.152;8.182;2024-03-23T06:03:04;2.05;;;1.50;;
31770;SDS011;18343;50.152;8.182;2024-03-23T06:05:48;1.80;;;1.67;;
31770;SDS011;18343;50.152;8.182;2024-03-23T06:08:33;2.70;;;1.80;;
31770;SDS011;18343;50.152;8.182;2024-03-23T06:11:17;4.93;;;3.50;;
31770;SDS011;18343;50.152;8.182;2024-03-23T06:14:03;10.30;;;4.72;;
31770;SDS011;18343;50.152;8.182;2024-03-23T06:16:48;3.58;;;2.10;;
31770;SDS011;18343;50.152;8.182;2024-03-23T06:19:32;4.20;;;1.80;;
31770;SDS011;18343;50.152;8.182;2024-03-23T06:22:17;3.00;;;1.63;;
31770;SDS011;18343;50.152;8.182;2024-03-23T06:25:01;5.07;;;2.20;;
31770;SDS011;18343;50.152;8.182;2024-03-23T06:27:46;3.22;;;1.90;;
31770;SDS011;18343;50.152;8.182;2024-03-23T06:30:32;5.45;;;2.38;;
31770;SDS011;18343;50.152;8.182;2024-03-23T06:33:17;7.93;;;2.50;;
31770;SDS011;18343;50.152;8.182;2024-03-23T06:36:03;3.88;;;2.42;;
31770;SDS011;18343;50.152;8.182;2024-03-23T06:38:50;10.70;;;3.00;;
31770;SDS011;18343;50.152;8.182;2024-03-23T06:41:34;8.57;;;3.10;;
31770;SDS011;18343;50.152;8.182;2024-03-23T06:44:19;8.60;;;3.22;;
31770;SDS011;18343;50.152;8.182;2024-03-23T06:47:06;7.35;;;2.88;;
31770;SDS011;18343;50.152;8.182;2024-03-23T06:49:50;12.38;;;3.10;;
31770;SDS011;18343;50.152;8.182;2024-03-23T06:52:36;7.70;;;2.83;;
31770;SDS011;18343;50.152;8.182;2024-03-23T06:55:21;6.13;;;2.60;;
31770;SDS011;18343;50.152;8.182;2024-03-23T06:58:06;12.55;;;3.40;;
31770;SDS011;18343;50.152;8.182;2024-03-23T07:00:51;8.77;;;4.57;;
31770;SDS011;18343;50.152;8.182;2024-03-23T07:03:37;6.60;;;3.38;;
31770;SDS011;18343;50.152;8.182;2024-03-23T07:06:22;13.38;;;4.97;;
31770;SDS011;18343;50.152;8.182;2024-03-23T07:09:06;10.32;;;5.32;;
31770;SDS011;18343;50.152;8.182;2024-03-23T07:11:51;7.28;;;3.95;;
31770;SDS011;18343;50.152;8.182;2024-03-23T07:14:38;13.13;;;6.47;;
31770;SDS011;18343;50.152;8.182;2024-03-23T07:17:22;11.10;;;6.70;;
31770;SDS011;18343;50.152;8.182;2024-03-23T07:20:09;14.65;;;6.05;;
31770;SDS011;18343;50.152;8.182;2024-03-23T07:22:54;15.40;;;7.15;;
31770;SDS011;18343;50.152;8.182;2024-03-23T07:25:39;16.13;;;6.25;;
31770;SDS011;18343;50.152;8.182;2024-03-23T07:28:23;13.13;;;6.68;;
31770;SDS011;18343;50.152;8.182;2024-03-23T07:31:08;19.38;;;7.80;;
31770;SDS011;18343;50.152;8.182;2024-03-23T07:33:54;16.95;;;7.43;;
31770;SDS011;18343;50.152;8.182;2024-03-23T07:36:40;14.00;;;7.78;;
31770;SDS011;18343;50.152;8.182;2024-03-23T07:39:27;16.35;;;8.43;;
31770;SDS011;18343;50.152;8.182;2024-03-23T07:42:15;13.95;;;7.65;;
31770;SDS011;18343;50.152;8.182;2024-03-23T07:45:00;18.88;;;8.32;;
31770;SDS011;18343;50.152;8.182;2024-03-23T07:47:45;19.80;;;8.30;;
31770;SDS011;18343;50.152;8.182;2024-03-23T07:50:30;13.45;;;7.28;;
31770;SDS011;18343;50.152;8.182;2024-03-23T07:53:16;18.40;;;7.38;;
31770;SDS011;18343;50.152;8.182;2024-03-23T07:56:04;13.45;;;7.30;;
31770;SDS011;18343;50.152;8.182;2024-03-23T07:58:50;14.57;;;6.40;;
31770;SDS011;18343;50.152;8.182;2024-03-23T08:01:35;16.33;;;6.80;;
31770;SDS011;18343;50.152;8.182;2024-03-23T08:04:20;9.48;;;5.32;;
31770;SDS011;18343;50.152;8.182;2024-03-23T08:07:05;17.73;;;6.10;;
31770;SDS011;18343;50.152;8.182;2024-03-23T08:09:51;19.67;;;6.63;;
31770;SDS011;18343;50.152;8.182;2024-03-23T08:12:35;15.80;;;6.50;;
31770;SDS011;18343;50.152;8.182;2024-03-23T08:15:20;11.35;;;4.63;;
31770;SDS011;18343;50.152;8.182;2024-03-23T08:18:04;19.10;;;5.60;;
31770;SDS011;18343;50.152;8.182;2024-03-23T08:20:55;15.18;;;7.22;;
31770;SDS011;18343;50.152;8.182;2024-03-23T08:23:40;19.40;;;7.15;;
31770;SDS011;18343;50.152;8.182;2024-03-23T08:26:26;17.38;;;7.53;;
31770;SDS011;18343;50.152;8.182;2024-03-23T08:29:11;19.33;;;7.50;;
31770;SDS011;18343;50.152;8.182;2024-03-23T08:31:55;25.95;;;7.13;;
31770;SDS011;18343;50.152;8.182;2024-03-23T08:34:40;16.67;;;6.78;;
31770;SDS011;18343;50.152;8.182;2024-03-23T08:37:25;21.42;;;6.78;;
31770;SDS011;18343;50.152;8.182;2024-03-23T08:40:09;24.27;;;8.05;;
31770;SDS011;18343;50.152;8.182;2024-03-23T08:42:56;15.57;;;5.95;;
31770;SDS011;18343;50.152;8.182;2024-03-23T08:45:40;12.85;;;5.20;;
31770;SDS011;18343;50.152;8.182;2024-03-23T08:48:25;19.40;;;6.40;;
31770;SDS011;18343;50.152;8.182;2024-03-23T08:51:09;23.77;;;6.07;;
31770;SDS011;18343;50.152;8.182;2024-03-23T08:53:55;18.33;;;6.75;;
31770;SDS011;18343;50.152;8.182;2024-03-23T08:56:40;20.52;;;6.82;;
31770;SDS011;18343;50.152;8.182;2024-03-23T08:59:26;14.60;;;5.53;;
31770;SDS011;18343;50.152;8.182;2024-03-23T09:02:11;21.75;;;6.97;;
31770;SDS011;18343;50.152;8.182;2024-03-23T09:04:55;21.80;;;5.65;;
31770;SDS011;18343;50.152;8.182;2024-03-23T09:07:40;14.07;;;4.80;;
31770;SDS011;18343;50.152;8.182;2024-03-23T09:10:24;18.38;;;5.28;;
31770;SDS011;18343;50.152;8.182;2024-03-23T09:13:09;13.32;;;4.13;;
31770;SDS011;18343;50.152;8.182;2024-03-23T09:15:55;14.40;;;4.65;;
31770;SDS011;18343;50.152;8.182;2024-03-23T09:18:39;19.15;;;4.35;;
31770;SDS011;18343;50.152;8.182;2024-03-23T09:21:23;15.15;;;3.90;;
31770;SDS011;18343;50.152;8.182;2024-03-23T09:24:08;15.05;;;4.05;;
31770;SDS011;18343;50.152;8.182;2024-03-23T09:26:53;6.65;;;3.30;;
31770;SDS011;18343;50.152;8.182;2024-03-23T09:29:37;13.98;;;3.72;;
31770;SDS011;18343;50.152;8.182;2024-03-23T09:32:24;15.98;;;3.60;;
31770;SDS011;18343;50.152;8.182;2024-03-23T09:35:08;10.75;;;2.63;;
31770;SDS011;18343;50.152;8.182;2024-03-23T09:37:53;11.60;;;3.30;;
31770;SDS011;18343;50.152;8.182;2024-03-23T09:40:40;11.07;;;2.85;;
31770;SDS011;18343;50.152;8.182;2024-03-23T09:43:25;15.68;;;3.20;;
31770;SDS011;18343;50.152;8.182;2024-03-23T09:46:10;13.68;;;3.80;;
31770;SDS011;18343;50.152;8.182;2024-03-23T09:48:56;15.35;;;3.35;;
31770;SDS011;18343;50.152;8.182;2024-03-23T09:51:41;13.50;;;2.97;;
31770;SDS011;18343;50.152;8.182;2024-03-23T09:54:26;14.68;;;3.28;;
31770;SDS011;18343;50.152;8.182;2024-03-23T09:57:11;11.88;;;3.65;;
31770;SDS011;18343;50.152;8.182;2024-03-23T09:59:55;11.30;;;3.08;;
31770;SDS011;18343;50.152;8.182;2024-03-23T10:02:40;12.68;;;3.70;;
31770;SDS011;18343;50.152;8.182;2024-03-23T10:05:27;13.90;;;3.55;;
31770;SDS011;18343;50.152;8.182;2024-03-23T10:08:17;8.32;;;3.22;;
31770;SDS011;18343;50.152;8.182;2024-03-23T10:11:12;15.27;;;4.25;;
31770;SDS011;18343;50.152;8.182;2024-03-23T10:13:57;9.52;;;2.88;;
31770;SDS011;18343;50.152;8.182;2024-03-23T10:16:42;11.20;;;3.13;;
31770;SDS011;18343;50.152;8.182;2024-03-23T10:19:30;8.25;;;2.22;;
31770;SDS011;18343;50.152;8.182;2024-03-23T10:22:17;6.85;;;2.38;;
31770;SDS011;18343;50.152;8.182;2024-03-23T10:25:07;14.18;;;2.60;;
31770;SDS011;18343;50.152;8.182;2024-03-23T10:27:57;14.02;;;3.22;;
31770;SDS011;18343;50.152;8.182;2024-03-23T10:30:43;6.03;;;1.95;;
31770;SDS011;18343;50.152;8.182;2024-03-23T10:33:28;9.80;;;2.60;;
31770;SDS011;18343;50.152;8.182;2024-03-23T10:36:13;11.90;;;2.80;;
31770;SDS011;18343;50.152;8.182;2024-03-23T10:38:59;14.45;;;2.88;;
31770;SDS011;18343;50.152;8.182;2024-03-23T10:41:45;8.88;;;2.78;;
31770;SDS011;18343;50.152;8.182;2024-03-23T10:44:33;10.23;;;2.20;;
31770;SDS011;18343;50.152;8.182;2024-03-23T10:47:18;8.77;;;2.47;;
31770;SDS011;18343;50.152;8.182;2024-03-23T10:50:04;12.73;;;2.60;;
31770;SDS011;18343;50.152;8.182;2024-03-23T10:52:49;11.18;;;3.67;;
31770;SDS011;18343;50.152;8.182;2024-03-23T10:55:38;9.07;;;3.53;;
31770;SDS011;18343;50.152;8.182;2024-03-23T10:58:26;8.27;;;3.50;;
31770;SDS011;18343;50.152;8.182;2024-03-23T11:01:16;14.52;;;4.28;;
31770;SDS011;18343;50.152;8.182;2024-03-23T11:04:01;10.35;;;3.63;;
31770;SDS011;18343;50.152;8.182;2024-03-23T11:06:46;9.75;;;3.83;;
31770;SDS011;18343;50.152;8.182;2024-03-23T11:09:39;11.23;;;4.40;;
31770;SDS011;18343;50.152;8.182;2024-03-23T11:12:30;9.55;;;4.18;;
31770;SDS011;18343;50.152;8.182;2024-03-23T11:15:15;11.70;;;4.35;;
31770;SDS011;18343;50.152;8.182;2024-03-23T11:18:03;14.52;;;4.53;;
31770;SDS011;18343;50.152;8.182;2024-03-23T11:20:48;12.52;;;4.13;;
31770;SDS011;18343;50.152;8.182;2024-03-23T11:23:32;17.27;;;4.35;;
31770;SDS011;18343;50.152;8.182;2024-03-23T11:26:16;17.65;;;3.88;;
31770;SDS011;18343;50.152;8.182;2024-03-23T11:29:09;11.15;;;3.72;;
31770;SDS011;18343;50.152;8.182;2024-03-23T11:31:54;12.85;;;4.30;;
31770;SDS011;18343;50.152;8.182;2024-03-23T11:34:39;12.88;;;4.32;;
31770;SDS011;18343;50.152;8.182;2024-03-23T11:37:24;9.52;;;3.55;;
31770;SDS011;18343;50.152;8.182;2024-03-23T11:40:16;8.80;;;3.10;;
31770;SDS011;18343;50.152;8.182;2024-03-23T11:43:02;7.25;;;3.38;;
31770;SDS011;18343;50.152;8.182;2024-03-23T11:45:50;7.50;;;4.20;;
31770;SDS011;18343;50.152;8.182;2024-03-23T11:48:36;14.43;;;3.55;;
31770;SDS011;18343;50.152;8.182;2024-03-23T11:51:20;8.80;;;2.75;;
31770;SDS011;18343;50.152;8.182;2024-03-23T11:54:07;11.45;;;3.35;;
31770;SDS011;18343;50.152;8.182;2024-03-23T11:56:55;11.98;;;3.70;;
31770;SDS011;18343;50.152;8.182;2024-03-23T11:59:41;11.98;;;3.17;;
31770;SDS011;18343;50.152;8.182;2024-03-23T12:02:27;11.15;;;3.08;;
31770;SDS011;18343;50.152;8.182;2024-03-23T12:05:16;11.13;;;2.92;;
31770;SDS011;18343;50.152;8.182;2024-03-23T12:08:17;10.35;;;3.00;;
31770;SDS011;18343;50.152;8.182;2024-03-23T12:11:07;6.78;;;2.70;;
31770;SDS011;18343;50.152;8.182;2024-03-23T12:13:53;8.68;;;3.35;;
31770;SDS011;18343;50.152;8.182;2024-03-23T12:16:43;7.43;;;2.60;;
31770;SDS011;18343;50.152;8.182;2024-03-23T12:19:29;9.93;;;2.92;;
31770;SDS011;18343;50.152;8.182;2024-03-23T12:22:14;11.63;;;2.97;;
31770;SDS011;18343;50.152;8.182;2024-03-23T12:24:58;10.73;;;3.28;;
31770;SDS011;18343;50.152;8.182;2024-03-23T12:27:43;7.25;;;2.60;;
31770;SDS011;18343;50.152;8.182;2024-03-23T12:30:27;10.50;;;2.60;;
31770;SDS011;18343;50.152;8.182;2024-03-23T12:33:12;6.65;;;2.58;;
31770;SDS011;18343;50.152;8.182;2024-03-23T12:35:58;11.13;;;2.95;;
31770;SDS011;18343;50.152;8.182;2024-03-23T12:38:43;4.10;;;1.77;;
31770;SDS011;18343;50.152;8.182;2024-03-23T12:41:28;5.10;;;2.67;;
31770;SDS011;18343;50.152;8.182;2024-03-23T12:44:12;3.88;;;1.73;;
31770;SDS011;18343;50.152;8.182;2024-03-23T12:46:57;2.08;;;1.10;;
31770;SDS011;18343;50.152;8.182;2024-03-23T12:49:41;9.43;;;1.90;;
31770;SDS011;18343;50.152;8.182;2024-03-23T12:52:27;3.45;;;1.42;;
31770;SDS011;18343;50.152;8.182;2024-03-23T12:55:11;5.18;;;1.85;;
31770;SDS011;18343;50.152;8.182;2024-03-23T12:57:56;2.45;;;1.30;;
31770;SDS011;18343;50.152;8.182;2024-03-23T13:00:41;9.05;;;1.90;;
31770;SDS011;18343;50.152;8.182;2024-03-23T13:03:25;3.90;;;1.50;;
31770;SDS011;18343;50.152;8.182;2024-03-23T13:06:10;2.60;;;1.17;;
31770;SDS011;18343;50.152;8.182;2024-03-23T13:08:56;2.97;;;1.10;;
31770;SDS011;18343;50.152;8.182;2024-03-23T13:11:41;8.02;;;1.38;;
31770;SDS011;18343;50.152;8.182;2024-03-23T13:14:25;1.05;;;0.88;;
31770;SDS011;18343;50.152;8.182;2024-03-23T13:17:10;2.35;;;1.00;;
31770;SDS011;18343;50.152;8.182;2024-03-23T13:19:54;1.77;;;0.80;;
31770;SDS011;18343;50.152;8.182;2024-03-23T13:22:39;2.50;;;1.02;;
31770;SDS011;18343;50.152;8.182;2024-03-23T13:25:25;2.83;;;0.98;;
31770;SDS011;18343;50.152;8.182;2024-03-23T13:28:09;3.15;;;0.90;;
31770;SDS011;18343;50.152;8.182;2024-03-23T13:30:56;4.20;;;0.80;;
31770;SDS011;18343;50.152;8.182;2024-03-23T13:33:40;2.10;;;0.70;;
31770;SDS011;18343;50.152;8.182;2024-03-23T13:36:25;0.95;;;0.70;;
31770;SDS011;18343;50.152;8.182;2024-03-23T13:39:09;3.30;;;1.02;;
31770;SDS011;18343;50.152;8.182;2024-03-23T13:41:56;2.78;;;0.80;;
31770;SDS011;18343;50.152;8.182;2024-03-23T13:44:40;0.95;;;0.80;;
31770;SDS011;18343;50.152;8.182;2024-03-23T13:47:25;2.40;;;1.08;;
31770;SDS011;18343;50.152;8.182;2024-03-23T13:50:09;1.48;;;0.80;;
31770;SDS011;18343;50.152;8.182;2024-03-23T13:52:53;1.20;;;0.70;;
31770;SDS011;18343;50.152;8.182;2024-03-23T13:55:38;4.15;;;0.70;;
31770;SDS011;18343;50.152;8.182;2024-03-23T13:58:31;1.75;;;0.82;;
31770;SDS011;18343;50.152;8.182;2024-03-23T14:01:16;1.52;;;0.68;;
31770;SDS011;18343;50.152;8.182;2024-03-23T14:04:01;4.22;;;0.90;;
31770;SDS011;18343;50.152;8.182;2024-03-23T14:06:46;2.50;;;0.98;;
31770;SDS011;18343;50.152;8.182;2024-03-23T14:09:31;1.85;;;0.95;;
31770;SDS011;18343;50.152;8.182;2024-03-23T14:12:15;1.30;;;0.70;;
31770;SDS011;18343;50.152;8.182;2024-03-23T14:15:01;0.60;;;0.60;;
31770;SDS011;18343;50.152;8.182;2024-03-23T14:17:49;2.25;;;0.90;;
31770;SDS011;18343;50.152;8.182;2024-03-23T14:20:33;2.63;;;0.90;;
31770;SDS011;18343;50.152;8.182;2024-03-23T14:23:18;1.92;;;0.80;;
31770;SDS011;18343;50.152;8.182;2024-03-23T14:26:02;1.55;;;0.88;;
31770;SDS011;18343;50.152;8.182;2024-03-23T14:28:47;5.28;;;1.30;;
31770;SDS011;18343;50.152;8.182;2024-03-23T14:31:34;2.80;;;1.23;;
31770;SDS011;18343;50.152;8.182;2024-03-23T14:34:19;1.80;;;1.23;;
31770;SDS011;18343;50.152;8.182;2024-03-23T14:37:04;2.00;;;1.00;;
31770;SDS011;18343;50.152;8.182;2024-03-23T14:39:48;3.35;;;1.10;;
31770;SDS011;18343;50.152;8.182;2024-03-23T14:42:32;2.80;;;1.05;;
31770;SDS011;18343;50.152;8.182;2024-03-23T14:45:17;4.15;;;1.40;;
31770;SDS011;18343;50.152;8.182;2024-03-23T14:48:03;2.40;;;1.17;;
31770;SDS011;18343;50.152;8.182;2024-03-23T14:50:51;2.80;;;1.20;;
31770;SDS011;18343;50.152;8.182;2024-03-23T14:53:40;3.67;;;0.90;;
31770;SDS011;18343;50.152;8.182;2024-03-23T14:56:29;4.03;;;0.90;;
31770;SDS011;18343;50.152;8.182;2024-03-23T14:59:13;5.38;;;1.00;;
31770;SDS011;18343;50.152;8.182;2024-03-23T15:01:58;2.65;;;0.85;;
31770;SDS011;18343;50.152;8.182;2024-03-23T15:04:44;3.35;;;1.80;;
31770;SDS011;18343;50.152;8.182;2024-03-23T15:07:28;1.00;;;0.90;;
31770;SDS011;18343;50.152;8.182;2024-03-23T15:10:14;2.25;;;1.10;;
31770;SDS011;18343;50.152;8.182;2024-03-23T15:12:59;5.00;;;1.30;;
31770;SDS011;18343;50.152;8.182;2024-03-23T15:15:44;3.28;;;0.98;;
31770;SDS011;18343;50.152;8.182;2024-03-23T15:18:29;1.05;;;0.95;;
31770;SDS011;18343;50.152;8.182;2024-03-23T15:21:15;2.25;;;0.95;;
31770;SDS011;18343;50.152;8.182;2024-03-23T15:24:03;2.15;;;1.00;;
31770;SDS011;18343;50.152;8.182;2024-03-23T15:26:48;2.33;;;1.17;;
31770;SDS011;18343;50.152;8.182;2024-03-23T15:29:32;3.03;;;0.93;;
31770;SDS011;18343;50.152;8.182;2024-03-23T15:32:17;1.25;;;0.85;;
31770;SDS011;18343;50.152;8.182;2024-03-23T15:35:02;2.67;;;0.70;;
31770;SDS011;18343;50.152;8.182;2024-03-23T15:37:50;4.57;;;1.10;;
31770;SDS011;18343;50.152;8.182;2024-03-23T15:40:35;4.72;;;1.10;;
31770;SDS011;18343;50.152;8.182;2024-03-23T15:43:19;2.67;;;1.10;;
31770;SDS011;18343;50.152;8.182;2024-03-23T15:46:04;4.60;;;0.90;;
31770;SDS011;18343;50.152;8.182;2024-03-23T15:48:49;2.97;;;0.90;;
31770;SDS011;18343;50.152;8.182;2024-03-23T15:51:33;3.83;;;0.90;;
31770;SDS011;18343;50.152;8.182;2024-03-23T15:54:19;2.85;;;1.00;;
31770;SDS011;18343;50.152;8.182;2024-03-23T15:57:04;2.95;;;1.10;;
31770;SDS011;18343;50.152;8.182;2024-03-23T15:59:48;1.98;;;0.93;;
31770;SDS011;18343;50.152;8.182;2024-03-23T16:02:33;4.68;;;1.60;;
31770;SDS011;18343;50.152;8.182;2024-03-23T16:05:18;3.60;;;2.15;;
31770;SDS011;18343;50.152;8.182;2024-03-23T16:08:02;5.95;;;1.95;;
31770;SDS011;18343;50.152;8.182;2024-03-23T16:10:48;3.92;;;1.75;;
31770;SDS011;18343;50.152;8.182;2024-03-23T16:13:33;4.32;;;1.77;;
31770;SDS011;18343;50.152;8.182;2024-03-23T16:16:18;4.20;;;2.17;;
31770;SDS011;18343;50.152;8.182;2024-03-23T16:19:03;3.45;;;1.70;;
31770;SDS011;18343;50.152;8.182;2024-03-23T16:21:47;5.90;;;1.65;;
31770;SDS011;18343;50.152;8.182;2024-03-23T16:24:32;3.45;;;1.48;;
31770;SDS011;18343;50.152;8.182;2024-03-23T16:27:18;3.17;;;1.50;;
31770;SDS011;18343;50.152;8.182;2024-03-23T16:30:02;1.70;;;1.20;;
31770;SDS011;18343;50.152;8.182;2024-03-23T16:32:47;4.20;;;0.93;;
31770;SDS011;18343;50.152;8.182;2024-03-23T16:35:32;2.42;;;1.00;;
31770;SDS011;18343;50.152;8.182;2024-03-23T16:38:17;4.30;;;1.23;;
31770;SDS011;18343;50.152;8.182;2024-03-23T16:41:02;3.25;;;1.13;;
31770;SDS011;18343;50.152;8.182;2024-03-23T16:43:49;2.25;;;1.25;;
31770;SDS011;18343;50.152;8.182;2024-03-23T16:46:34;2.83;;;1.10;;
31770;SDS011;18343;50.152;8.182;2024-03-23T16:49:19;3.28;;;1.25;;
31770;SDS011;18343;50.152;8.182;2024-03-23T16:52:03;2.47;;;0.90;;
31770;SDS011;18343;50.152;8.182;2024-03-23T16:54:49;3.42;;;1.05;;
31770;SDS011;18343;50.152;8.182;2024-03-23T16:57:34;4.55;;;1.00;;
31770;SDS011;18343;50.152;8.182;2024-03-23T17:00:19;1.92;;;0.93;;
31770;SDS011;18343;50.152;8.182;2024-03-23T17:03:05;4.43;;;1.23;;
31770;SDS011;18343;50.152;8.182;2024-03-23T17:05:49;4.30;;;1.10;;
31770;SDS011;18343;50.152;8.182;2024-03-23T17:08:52;3.10;;;1.30;;
31770;SDS011;18343;50.152;8.182;2024-03-23T17:11:37;2.35;;;0.73;;
31770;SDS011;18343;50.152;8.182;2024-03-23T17:14:21;2.67;;;0.77;;
31770;SDS011;18343;50.152;8.182;2024-03-23T17:17:07;2.25;;;0.65;;
31770;SDS011;18343;50.152;8.182;2024-03-23T17:19:58;2.63;;;0.80;;
31770;SDS011;18343;50.152;8.182;2024-03-23T17:22:43;1.30;;;0.88;;